Time;durP1;ratioP1;P1;durP2;ratioP2;P2;SDS_P1;SDS_P2;PMS_P1;PMS_P2;Temp;Humidity;BMP_temperature;BMP_pressure;BME280_temperature;BME280_humidity;BME280_pressure;Samples;Min_cycle;Max_cycle;Signal;HPM_P1;HPM_P2
2021/08/10 00:00:55;;;;;;;;;6.75;5.50;;;;;21.54;49.94;101240.34;5080208;27;45536;-53
2021/08/10 00:03:21;;;;;;;;;30.00;26.50;;;;;21.52;50.60;101236.91;5080351;28;45339;-50
2021/08/10 00:05:49;;;;;;;;;5.25;4.75;;;;;21.52;50.30;101233.34;5080604;28;45400;-51
2021/08/10 00:08:19;;;;;;;;;6.75;5.00;;;;;21.50;50.15;101245.97;5080523;28;45246;-52
2021/08/10 00:10:47;;;;;;;;;5.25;5.25;;;;;21.50;50.77;101245.97;5080452;27;45415;-51
2021/08/10 00:13:14;;;;;;;;;6.25;5.75;;;;;21.48;50.30;101242.50;5080123;28;46861;-51
2021/08/10 00:15:40;;;;;;;;;6.00;6.00;;;;;21.45;50.78;101232.81;5080123;28;45284;-52
2021/08/10 00:18:06;;;;;;;;;5.75;5.25;;;;;21.45;50.25;101242.66;5080381;28;45839;-52
2021/08/10 00:20:32;;;;;;;;;5.50;4.25;;;;;21.42;50.72;101233.84;5080358;28;45259;-51
2021/08/10 00:22:58;;;;;;;;;5.50;5.25;;;;;21.43;50.58;101232.03;5079922;28;45244;-49
2021/08/10 00:25:24;;;;;;;;;8.00;6.25;;;;;21.41;50.92;101231.25;5080377;28;45365;-51
2021/08/10 00:27:49;;;;;;;;;5.00;5.00;;;;;21.38;50.25;101226.94;5080254;28;45314;-53
2021/08/10 00:30:15;;;;;;;;;6.00;6.00;;;;;21.36;50.82;101219.94;5080175;27;45282;-50
2021/08/10 00:32:40;;;;;;;;;5.25;5.25;;;;;21.33;50.42;101215.59;5079975;28;45337;-51
2021/08/10 00:35:06;;;;;;;;;7.50;6.00;;;;;21.30;50.99;101222.94;5080297;27;45317;-49
2021/08/10 00:37:32;;;;;;;;;6.50;6.50;;;;;21.30;50.93;101226.47;5080177;28;45317;-50
2021/08/10 00:39:58;;;;;;;;;6.00;5.00;;;;;21.29;50.36;101221.19;5080151;28;45235;-51
2021/08/10 00:42:23;;;;;;;;;6.50;6.00;;;;;21.28;51.04;101225.66;5079912;28;45382;-52
2021/08/10 00:44:49;;;;;;;;;4.25;4.25;;;;;21.26;50.65;101222.22;5080108;28;45219;-48
2021/08/10 00:47:14;;;;;;;;;4.50;4.50;;;;;21.27;50.44;101216.78;5080146;28;45216;-49
2021/08/10 00:49:40;;;;;;;;;6.50;6.50;;;;;21.26;50.76;101217.72;5080282;28;45230;-47
2021/08/10 00:52:05;;;;;;;;;6.25;4.50;;;;;21.26;50.80;101227.56;5079777;28;45596;-48
2021/08/10 00:54:32;;;;;;;;;7.00;7.00;;;;;21.25;51.14;101223.16;5080130;28;45200;-51
2021/08/10 00:56:57;;;;;;;;;6.75;6.00;;;;;21.24;50.88;101229.44;5079833;28;45299;-53
2021/08/10 00:59:22;;;;;;;;;6.50;6.50;;;;;21.21;50.88;101229.63;5079916;28;45233;-53
2021/08/10 01:01:48;;;;;;;;;10.50;7.50;;;;;21.20;50.78;101241.25;5081136;28;45256;-50
2021/08/10 01:04:14;;;;;;;;;7.75;6.25;;;;;21.17;51.17;101244.94;5083468;28;45346;-50
2021/08/10 01:07:07;;;;;;;;;8.50;8.00;;;;;21.15;50.86;101253.97;5083473;28;45257;-51
2021/08/10 01:09:41;;;;;;;;;8.00;7.00;;;;;21.12;51.28;101252.31;5082114;28;45530;-52
2021/08/10 01:12:17;;;;;;;;;10.25;9.75;;;;;21.10;51.50;101251.53;5083129;28;45284;-51
2021/08/10 01:14:48;;;;;;;;;10.00;9.75;;;;;21.06;50.98;101249.97;5082884;28;45205;-50
2021/08/10 01:17:48;;;;;;;;;13.50;12.00;;;;;21.07;51.50;101262.38;5083343;28;45386;-49
2021/08/10 01:20:40;;;;;;;;;10.00;10.00;;;;;21.04;51.26;101266.06;5059767;27;45554;-49
2021/08/10 01:23:09;;;;;;;;;10.50;7.25;;;;;21.04;51.61;101262.53;5082381;28;46386;-50
2021/08/10 01:26:05;;;;;;;;;7.25;7.00;;;;;21.04;51.82;101270.53;5083128;28;45333;-49
2021/08/10 01:28:54;;;;;;;;;7.75;7.25;;;;;21.01;51.51;101268.88;5082952;28;45409;-51
2021/08/10 01:31:23;;;;;;;;;9.00;8.25;;;;;21.02;51.75;101259.94;5081762;27;45320;-48
2021/08/10 01:33:51;;;;;;;;;7.25;7.25;;;;;21.01;51.84;101250.19;5082850;28;46102;-48
2021/08/10 01:36:19;;;;;;;;;11.75;9.25;;;;;21.01;51.74;101260.88;5069622;28;45473;-50
2021/08/10 01:38:48;;;;;;;;;5.75;5.75;;;;;21.01;51.52;101260.03;5082931;28;45326;-50
2021/08/10 01:41:14;;;;;;;;;9.25;8.50;;;;;21.00;52.13;101255.63;5082800;27;45490;-52
2021/08/10 01:43:43;;;;;;;;;9.00;8.25;;;;;20.99;51.87;101252.06;5082580;28;46094;-48
2021/08/10 01:46:09;;;;;;;;;7.50;6.75;;;;;20.97;51.81;101245.06;5082436;28;45207;-50
2021/08/10 01:48:35;;;;;;;;;9.00;7.00;;;;;20.94;52.13;101240.75;5081535;28;45251;-48
2021/08/10 01:51:02;;;;;;;;;10.50;6.50;;;;;20.94;52.21;101249.63;5082641;28;45574;-48
2021/08/10 01:53:29;;;;;;;;;4.75;4.75;;;;;20.93;52.05;101253.25;5082640;28;46308;-50
2021/08/10 01:55:58;;;;;;;;;5.50;5.00;;;;;20.90;52.29;101239.16;5082557;28;45256;-51
2021/08/10 01:58:26;;;;;;;;;6.75;6.75;;;;;20.90;52.54;101248.03;5082396;28;45468;-50
2021/08/10 02:00:52;;;;;;;;;9.25;7.75;;;;;20.90;52.72;101252.53;5082388;27;45175;-48
2021/08/10 02:03:18;;;;;;;;;9.50;6.00;;;;;20.89;52.34;101248.13;5082304;28;46140;-51
2021/08/10 02:05:46;;;;;;;;;8.50;5.75;;;;;20.87;52.37;101252.69;5082550;28;45295;-51
2021/08/10 02:08:13;;;;;;;;;7.00;6.75;;;;;20.85;52.53;101250.06;5082640;28;45540;-52
2021/08/10 02:10:39;;;;;;;;;5.25;5.25;;;;;20.83;52.22;101251.97;5082318;27;45327;-51
2021/08/10 02:13:06;;;;;;;;;7.00;6.25;;;;;20.82;52.64;101257.38;5081312;28;46652;-49
2021/08/10 02:15:32;;;;;;;;;6.25;6.25;;;;;20.82;52.49;101260.91;5082301;28;45224;-52
2021/08/10 02:17:57;;;;;;;;;10.50;7.50;;;;;20.80;52.96;101252.09;5082285;28;45382;-50
2021/08/10 02:20:23;;;;;;;;;9.00;7.00;;;;;20.78;53.16;101262.88;5081069;28;45240;-52
2021/08/10 02:22:48;;;;;;;;;6.50;6.50;;;;;20.78;52.68;101265.53;5081897;28;45354;-49
2021/08/10 02:25:22;;;;;;;;;7.50;7.00;;;;;20.76;53.24;101267.41;5082338;28;45310;-52
2021/08/10 02:27:52;;;;;;;;;9.25;5.25;;;;;20.75;53.25;101267.50;5082114;28;45309;-52
2021/08/10 02:30:22;;;;;;;;;10.75;8.75;;;;;20.73;53.43;101258.72;5081871;28;45497;-49
2021/08/10 02:32:50;;;;;;;;;8.00;6.25;;;;;20.69;53.42;101252.63;5081807;28;46216;-51
2021/08/10 02:35:20;;;;;;;;;8.50;6.00;;;;;20.67;53.26;101251.81;5081969;27;45322;-52
2021/08/10 02:37:47;;;;;;;;;8.50;7.00;;;;;20.66;53.13;101254.56;5081902;28;45229;-50
2021/08/10 02:40:17;;;;;;;;;6.50;6.00;;;;;20.61;53.68;101247.63;5081950;27;45239;-50
2021/08/10 02:42:57;;;;;;;;;8.00;6.50;;;;;20.61;53.69;101242.28;5081634;28;46373;-51
2021/08/10 02:45:23;;;;;;;;;5.25;4.50;;;;;20.60;53.37;101256.59;5081624;28;45468;-50
2021/08/10 02:47:53;;;;;;;;;6.75;6.50;;;;;20.59;53.94;101252.19;5080760;28;45486;-51
2021/08/10 02:50:19;;;;;;;;;8.75;8.00;;;;;20.57;53.50;101250.53;5081893;27;45444;-49
2021/08/10 02:52:45;;;;;;;;;7.00;6.50;;;;;20.58;53.49;101249.59;5080476;28;45878;-52
2021/08/10 02:55:11;;;;;;;;;9.50;8.25;;;;;20.57;53.45;101247.88;5081501;28;45406;-49
2021/08/10 02:58:00;;;;;;;;;7.50;7.00;;;;;20.56;53.98;101246.13;5081769;28;45230;-49
2021/08/10 03:00:28;;;;;;;;;5.75;5.75;;;;;20.52;53.72;101240.06;5081166;27;45328;-50
2021/08/10 03:03:00;;;;;;;;;7.75;6.00;;;;;20.52;53.78;101248.09;5081539;28;45270;-52
2021/08/10 03:05:29;;;;;;;;;10.00;8.25;;;;;20.51;53.65;101249.00;5081534;28;45326;-51
2021/08/10 03:07:57;;;;;;;;;10.00;8.50;;;;;20.47;54.24;101239.44;5081483;28;45275;-51
2021/08/10 03:10:29;;;;;;;;;6.75;5.25;;;;;20.48;54.38;101234.94;5081539;27;45189;-53
2021/08/10 03:12:59;;;;;;;;;7.50;6.00;;;;;20.45;54.02;101238.63;5079854;28;47585;-52
2021/08/10 03:15:28;;;;;;;;;10.00;7.00;;;;;20.42;54.15;101236.13;5081170;28;45325;-53
2021/08/10 03:17:58;;;;;;;;;7.75;6.75;;;;;20.33;54.41;101216.06;5081298;28;45283;-51
2021/08/10 03:20:25;;;;;;;;;7.50;6.50;;;;;20.39;54.29;101233.59;5081498;27;45438;-49
2021/08/10 03:22:52;;;;;;;;;7.50;7.50;;;;;20.37;54.60;101236.31;5080924;28;45438;-57
2021/08/10 03:25:20;;;;;;;;;10.75;6.75;;;;;20.35;54.69;101230.22;5078836;28;45390;-47
2021/08/10 03:27:49;;;;;;;;;7.75;6.75;;;;;20.36;54.17;101237.25;5081169;28;45269;-48
2021/08/10 03:30:16;;;;;;;;;9.00;6.50;;;;;20.36;54.68;101247.09;5080845;27;45413;-49
2021/08/10 03:32:43;;;;;;;;;6.25;4.75;;;;;20.34;54.30;101244.50;5080761;28;45299;-48
2021/08/10 03:35:08;;;;;;;;;11.50;8.00;;;;;20.32;54.23;101238.34;5081142;27;45307;-47
2021/08/10 03:37:35;;;;;;;;;9.00;8.00;;;;;20.30;54.43;101233.09;5080886;28;45234;-48
2021/08/10 03:40:01;;;;;;;;;10.00;7.75;;;;;20.32;54.57;101242.84;5081008;28;45319;-49
2021/08/10 03:42:27;;;;;;;;;8.75;7.50;;;;;20.29;54.89;101236.69;5080602;28;46299;-51
2021/08/10 03:44:54;;;;;;;;;7.00;5.50;;;;;20.28;54.41;101234.97;5080654;28;45242;-47
2021/08/10 03:47:21;;;;;;;;;9.50;9.00;;;;;20.27;55.17;101237.72;5080860;28;45334;-47
2021/08/10 03:49:49;;;;;;;;;8.00;6.00;;;;;20.26;54.82;101231.53;5079564;27;45448;-49
2021/08/10 03:52:15;;;;;;;;;7.75;5.00;;;;;20.26;54.58;101230.63;5080570;28;45211;-50
2021/08/10 03:54:42;;;;;;;;;8.00;6.75;;;;;20.25;54.65;101231.56;5080782;28;45214;-48
2021/08/10 03:57:13;;;;;;;;;7.25;7.00;;;;;20.22;54.54;101223.72;5080504;28;45422;-48
2021/08/10 03:59:40;;;;;;;;;9.50;8.25;;;;;20.16;54.93;101208.84;5079411;28;45318;-47
2021/08/10 04:02:05;;;;;;;;;13.00;10.00;;;;;20.21;54.68;101222.84;5080292;28;46443;-48
2021/08/10 04:04:32;;;;;;;;;19.00;16.50;;;;;20.20;55.45;101228.25;5080532;28;45446;-48
2021/08/10 04:06:58;;;;;;;;;10.00;8.75;;;;;20.20;54.92;101228.25;5080775;28;45281;-48
2021/08/10 04:09:24;;;;;;;;;12.25;8.25;;;;;20.19;55.38;101230.06;5080550;28;45300;-48
2021/08/10 04:11:49;;;;;;;;;6.75;6.75;;;;;20.18;55.34;101241.69;5080220;28;45280;-49
2021/08/10 04:14:16;;;;;;;;;7.00;7.00;;;;;20.18;55.24;101230.16;5080322;28;45378;-50
2021/08/10 04:16:49;;;;;;;;;7.25;7.25;;;;;20.18;55.37;101230.16;5080351;28;45390;-50
2021/08/10 04:19:15;;;;;;;;;8.00;5.50;;;;;20.16;55.03;101230.19;5080499;28;45301;-48
2021/08/10 04:21:41;;;;;;;;;6.50;6.50;;;;;20.15;54.95;101233.81;5080075;28;46047;-49
2021/08/10 04:24:07;;;;;;;;;8.75;7.00;;;;;20.14;55.43;101232.94;5080345;28;45385;-49
2021/08/10 04:26:33;;;;;;;;;9.25;5.50;;;;;20.13;55.03;101231.22;5080424;28;45248;-48
2021/08/10 04:29:00;;;;;;;;;9.00;8.00;;;;;20.12;55.07;101234.84;5080032;28;45215;-51
2021/08/10 04:31:25;;;;;;;;;6.75;6.75;;;;;20.12;55.12;101244.63;5080107;28;47107;-48
2021/08/10 04:33:50;;;;;;;;;9.00;6.00;;;;;20.11;55.20;101245.56;5080190;28;45231;-47
2021/08/10 04:36:16;;;;;;;;;6.50;6.25;;;;;20.11;55.27;101240.22;5083256;28;45310;-48
2021/08/10 04:38:41;;;;;;;;;7.75;7.25;;;;;20.07;55.51;101243.97;5087214;28;45207;-50
2021/08/10 04:41:07;;;;;;;;;9.75;8.00;;;;;20.06;55.41;101243.13;5086846;27;46135;-48
2021/08/10 04:43:34;;;;;;;;;8.75;8.00;;;;;20.04;55.12;101244.97;5085671;28;45444;-51
2021/08/10 04:45:59;;;;;;;;;7.75;7.75;;;;;20.02;55.75;101249.50;5086856;28;45345;-52
2021/08/10 04:48:24;;;;;;;;;9.75;7.50;;;;;20.05;55.77;101251.16;5086782;28;45472;-48
2021/08/10 04:50:50;;;;;;;;;7.25;7.25;;;;;20.02;55.69;101252.19;5086826;27;45333;-50
2021/08/10 04:53:15;;;;;;;;;9.25;9.00;;;;;20.02;55.74;101249.50;5086765;28;45319;-51
2021/08/10 04:55:40;;;;;;;;;9.75;8.50;;;;;20.00;55.76;101254.06;5087015;28;45259;-48
2021/08/10 04:58:06;;;;;;;;;8.75;7.00;;;;;20.01;55.44;101257.59;5086689;28;45659;-48
2021/08/10 05:00:32;;;;;;;;;8.00;7.00;;;;;19.97;55.99;101252.41;5086282;27;47692;-47
2021/08/10 05:02:57;;;;;;;;;9.50;8.00;;;;;19.97;55.97;101263.09;5084972;28;45384;-51
2021/08/10 05:05:23;;;;;;;;;6.25;6.25;;;;;19.95;55.98;101259.59;5086377;28;45559;-50
2021/08/10 05:07:48;;;;;;;;;9.00;7.50;;;;;19.94;56.23;101259.69;5086353;28;45324;-47
2021/08/10 05:10:13;;;;;;;;;8.25;6.75;;;;;19.89;55.99;101273.22;5085158;27;46053;-49
2021/08/10 05:12:39;;;;;;;;;8.50;8.00;;;;;19.86;55.84;101270.69;5086378;28;45164;-51
2021/08/10 05:15:05;;;;;;;;;10.00;7.75;;;;;19.84;55.92;101271.72;5086439;28;45316;-51
2021/08/10 05:17:30;;;;;;;;;7.75;7.25;;;;;19.80;55.96;101266.47;5085174;28;45277;-48
2021/08/10 05:19:56;;;;;;;;;7.25;6.00;;;;;19.75;56.26;101263.13;5086004;27;45385;-51
2021/08/10 05:22:21;;;;;;;;;9.50;7.75;;;;;19.75;55.99;101268.47;5086312;27;45563;-50
2021/08/10 05:24:47;;;;;;;;;10.00;7.25;;;;;19.74;56.14;101269.41;5086294;28;45553;-50
2021/08/10 05:27:12;;;;;;;;;8.00;6.75;;;;;19.73;56.12;101266.81;5086370;28;45240;-51
2021/08/10 05:29:37;;;;;;;;;11.50;9.25;;;;;19.71;55.99;101266.88;5084627;28;48286;-50
2021/08/10 05:32:03;;;;;;;;;7.25;7.25;;;;;19.71;56.14;101274.88;5086478;27;45225;-49
2021/08/10 05:34:28;;;;;;;;;8.50;7.25;;;;;19.70;56.14;101280.25;5086187;28;45363;-51
2021/08/10 05:36:54;;;;;;;;;6.50;6.25;;;;;19.70;56.05;101275.81;5086391;28;45453;-48
2021/08/10 05:39:19;;;;;;;;;7.75;7.50;;;;;19.69;56.49;101270.56;5085999;28;45426;-49
2021/08/10 05:41:44;;;;;;;;;10.75;8.25;;;;;19.69;56.39;101275.88;5086027;27;45321;-48
2021/08/10 05:44:10;;;;;;;;;9.50;8.00;;;;;19.66;56.24;101274.22;5085961;28;45711;-49
2021/08/10 05:46:35;;;;;;;;;9.25;8.25;;;;;19.67;56.25;101267.06;5085131;28;45373;-48
2021/08/10 05:49:00;;;;;;;;;10.00;6.25;;;;;19.67;56.59;101270.59;5080692;28;47289;-48
2021/08/10 05:51:26;;;;;;;;;4.50;4.25;;;;;19.68;56.15;101274.16;5082850;28;45299;-48
2021/08/10 05:53:52;;;;;;;;;12.50;8.25;;;;;19.67;56.31;101278.59;5081358;28;45416;-49
2021/08/10 05:56:17;;;;;;;;;9.75;9.00;;;;;19.68;56.42;101266.16;5082648;28;45460;-52
2021/08/10 05:58:43;;;;;;;;;7.50;7.00;;;;;19.67;56.72;101273.25;5082397;28;45273;-48
2021/08/10 06:01:08;;;;;;;;;6.00;6.00;;;;;19.68;56.80;101264.34;5082522;27;45359;-50
2021/08/10 06:03:34;;;;;;;;;8.25;8.00;;;;;19.69;56.37;101266.06;5081309;28;45224;-49
2021/08/10 06:06:00;;;;;;;;;8.25;7.25;;;;;19.70;56.48;101264.25;5082659;28;45425;-52
2021/08/10 06:08:27;;;;;;;;;9.00;8.00;;;;;19.70;56.22;101257.16;5082266;28;45302;-51
2021/08/10 06:10:53;;;;;;;;;9.50;9.00;;;;;19.73;56.42;101270.31;5082595;27;45223;-51
2021/08/10 06:13:18;;;;;;;;;9.00;7.00;;;;;19.75;56.34;101272.94;5082296;28;45310;-50
2021/08/10 06:15:43;;;;;;;;;9.75;8.25;;;;;19.76;56.25;101275.53;5082215;28;45564;-48
2021/08/10 06:18:09;;;;;;;;;11.00;9.00;;;;;19.78;56.87;101278.97;5082139;28;46116;-51
2021/08/10 06:20:34;;;;;;;;;8.75;8.75;;;;;19.79;56.37;101264.72;5082211;27;45333;-52
2021/08/10 06:23:01;;;;;;;;;8.75;8.00;;;;;19.83;56.70;101272.63;5080816;28;45330;-53
2021/08/10 06:25:26;;;;;;;;;13.75;10.00;;;;;19.84;56.59;101272.56;5082256;28;45414;-53
2021/08/10 06:27:52;;;;;;;;;8.50;8.50;;;;;19.86;56.42;101269.81;5081770;28;46277;-51
2021/08/10 06:30:17;;;;;;;;;8.75;8.25;;;;;19.89;56.58;101278.53;5081963;27;45303;-50
2021/08/10 06:32:42;;;;;;;;;9.75;9.25;;;;;19.91;56.46;101281.13;5082035;28;45310;-53
2021/08/10 06:35:08;;;;;;;;;12.00;9.00;;;;;19.93;56.47;101273.94;5082176;28;45338;-48
2021/08/10 06:37:34;;;;;;;;;8.25;7.00;;;;;19.94;56.89;101273.03;5081701;28;46183;-48
2021/08/10 06:39:59;;;;;;;;;9.25;9.00;;;;;19.96;56.87;101276.47;5081966;28;45260;-49
2021/08/10 06:42:24;;;;;;;;;7.00;7.00;;;;;19.97;56.42;101275.53;5081954;28;45209;-52
2021/08/10 06:44:50;;;;;;;;;8.50;7.50;;;;;20.00;56.44;101267.41;5081851;28;45219;-53
2021/08/10 06:47:16;;;;;;;;;11.25;8.25;;;;;20.01;56.80;101274.44;5081676;28;47439;-51
2021/08/10 06:49:42;;;;;;;;;9.00;9.00;;;;;20.00;57.10;101272.75;5081932;28;45217;-52
2021/08/10 06:52:09;;;;;;;;;10.25;9.50;;;;;20.06;56.87;101288.47;5081861;28;45256;-51
2021/08/10 06:54:35;;;;;;;;;12.25;9.25;;;;;20.07;56.45;101286.66;5081908;28;45358;-54
2021/08/10 06:57:05;;;;;;;;;6.75;6.75;;;;;20.07;57.08;101279.50;5081257;28;46505;-50
2021/08/10 06:59:31;;;;;;;;;14.50;12.25;;;;;20.08;56.78;101275.91;5080031;28;45326;-52
2021/08/10 07:01:57;;;;;;;;;11.00;8.25;;;;;20.07;56.94;101271.50;5081513;28;45476;-49
2021/08/10 07:04:22;;;;;;;;;9.00;8.00;;;;;20.11;56.79;101269.56;5080310;28;45249;-51
2021/08/10 07:06:47;;;;;;;;;9.75;8.25;;;;;20.07;56.85;101270.66;5081395;28;46129;-52
2021/08/10 07:09:14;;;;;;;;;10.75;9.25;;;;;20.12;57.40;101279.31;5081604;28;45258;-52
2021/08/10 07:11:42;;;;;;;;;11.75;11.00;;;;;20.11;57.00;101275.78;5081535;27;45384;-48
2021/08/10 07:14:11;;;;;;;;;13.50;9.50;;;;;20.14;57.02;101285.44;5079883;28;45483;-53
2021/08/10 07:16:40;;;;;;;;;13.75;10.00;;;;;20.14;57.03;101286.31;5080890;28;46178;-48
2021/08/10 07:19:06;;;;;;;;;11.00;10.00;;;;;20.14;57.52;101283.63;5079973;28;45341;-50
2021/08/10 07:21:31;;;;;;;;;11.00;10.00;;;;;20.16;57.24;101280.03;5079934;27;45362;-49
2021/08/10 07:23:57;;;;;;;;;12.50;11.50;;;;;20.17;57.33;101279.09;5079942;28;45537;-51
2021/08/10 07:26:23;;;;;;;;;9.00;8.25;;;;;20.18;57.24;101289.69;5081344;28;45964;-49
2021/08/10 07:28:48;;;;;;;;;11.00;9.25;;;;;20.19;57.67;101290.56;5080756;28;45307;-52
2021/08/10 07:31:14;;;;;;;;;11.50;8.25;;;;;20.20;57.20;101292.28;5081303;28;45339;-49
2021/08/10 07:33:40;;;;;;;;;12.75;9.75;;;;;20.24;57.21;101291.22;5081108;28;45162;-50
2021/08/10 07:36:06;;;;;;;;;9.50;8.50;;;;;20.25;57.35;101291.16;5079476;28;45517;-53
2021/08/10 07:38:31;;;;;;;;;7.00;7.00;;;;;20.28;57.86;101292.81;5081058;28;45154;-54
2021/08/10 07:40:56;;;;;;;;;14.00;12.25;;;;;20.33;57.62;101301.47;5081013;27;45431;-52
2021/08/10 07:43:22;;;;;;;;;11.00;8.25;;;;;20.36;57.72;101293.31;5079572;28;45592;-52
2021/08/10 07:45:47;;;;;;;;;9.00;8.00;;;;;20.38;57.34;101295.94;5080604;28;45212;-52
2021/08/10 07:48:13;;;;;;;;;9.00;7.75;;;;;20.43;57.81;101293.91;5080922;28;45227;-51
2021/08/10 07:50:38;;;;;;;;;9.00;8.50;;;;;20.45;57.89;101303.56;5080725;27;45360;-53
2021/08/10 07:53:04;;;;;;;;;8.00;8.00;;;;;20.50;57.47;101302.47;5079467;28;45482;-54
2021/08/10 07:55:29;;;;;;;;;7.00;6.25;;;;;20.53;57.63;101297.00;5080652;28;45916;-52
2021/08/10 07:57:54;;;;;;;;;8.50;8.00;;;;;20.56;57.49;101300.38;5080721;28;45365;-52
2021/08/10 08:00:20;;;;;;;;;11.50;10.75;;;;;20.61;57.08;101301.03;5062369;28;45350;-51
2021/08/10 08:02:45;;;;;;;;;10.25;10.25;;;;;20.67;57.19;101297.22;5080649;28;45456;-53
2021/08/10 08:05:11;;;;;;;;;10.00;8.25;;;;;20.71;57.23;101300.63;5080582;28;45458;-50
2021/08/10 08:07:36;;;;;;;;;9.50;9.00;;;;;20.74;57.13;101303.16;5080679;28;45319;-52
2021/08/10 08:10:01;;;;;;;;;10.50;10.50;;;;;20.75;57.12;101302.22;5079824;28;45248;-52
2021/08/10 08:12:27;;;;;;;;;10.00;8.00;;;;;20.79;57.42;101309.13;5080628;28;45357;-50
2021/08/10 08:14:52;;;;;;;;;10.00;8.75;;;;;20.82;57.42;101295.63;5078762;28;47056;-52
2021/08/10 08:17:17;;;;;;;;;5.50;4.50;;;;;20.89;57.67;101305.09;5080341;28;45362;-52
2021/08/10 08:19:43;;;;;;;;;9.25;7.50;;;;;20.92;57.20;101306.75;5080380;28;45496;-52
2021/08/10 08:22:08;;;;;;;;;7.25;6.00;;;;;20.99;57.21;101310.81;5080358;28;45248;-52
2021/08/10 08:24:34;;;;;;;;;8.25;8.25;;;;;21.03;57.26;101298.19;5080168;28;45185;-50
2021/08/10 08:26:59;;;;;;;;;8.00;8.00;;;;;21.03;57.02;101301.75;5080248;28;45317;-54
2021/08/10 08:29:24;;;;;;;;;8.00;7.25;;;;;21.07;57.58;101297.97;5080116;28;45567;-55
2021/08/10 08:31:50;;;;;;;;;8.00;7.00;;;;;21.11;57.61;101298.69;5080268;27;45433;-50
2021/08/10 08:34:15;;;;;;;;;7.25;7.00;;;;;21.17;57.35;101302.84;5079883;28;45414;-53
2021/08/10 08:36:42;;;;;;;;;8.00;8.00;;;;;21.19;57.07;101300.97;5080254;28;45290;-53
2021/08/10 08:39:08;;;;;;;;;6.50;6.50;;;;;21.23;57.08;101300.75;5080200;28;45255;-53
2021/08/10 08:41:33;;;;;;;;;5.25;5.25;;;;;21.29;57.31;101304.06;5078915;28;45434;-53
2021/08/10 08:43:58;;;;;;;;;7.00;6.00;;;;;21.32;56.94;101304.78;5078312;28;46999;-53
2021/08/10 08:46:24;;;;;;;;;6.75;6.75;;;;;21.35;56.86;101299.25;5080131;28;45298;-51
2021/08/10 08:48:51;;;;;;;;;12.00;7.00;;;;;21.40;57.41;101305.22;5079915;28;45340;-52
2021/08/10 08:51:23;;;;;;;;;7.50;6.00;;;;;21.43;57.23;101299.75;5080091;28;45315;-51
2021/08/10 08:53:54;;;;;;;;;8.25;8.25;;;;;21.49;57.42;101309.25;5079721;28;47292;-54
2021/08/10 08:56:24;;;;;;;;;10.50;9.00;;;;;21.54;57.13;101298.31;5079887;28;45243;-53
2021/08/10 08:58:52;;;;;;;;;5.75;5.00;;;;;21.56;57.40;101299.16;5079444;28;45301;-53
2021/08/10 09:01:18;;;;;;;;;10.25;6.75;;;;;21.60;57.27;101303.38;5079833;28;45375;-52
2021/08/10 09:03:43;;;;;;;;;9.00;7.75;;;;;21.66;56.73;101297.72;5079541;28;45394;-52
2021/08/10 09:06:09;;;;;;;;;10.00;5.25;;;;;21.69;57.23;101292.19;5080106;28;45218;-52
2021/08/10 09:08:39;;;;;;;;;6.50;6.00;;;;;21.73;57.19;101284.88;5079824;28;45287;-51
2021/08/10 09:11:09;;;;;;;;;8.00;5.25;;;;;21.79;56.98;101292.59;5078584;27;45498;-53
2021/08/10 09:13:40;;;;;;;;;6.50;6.50;;;;;21.84;56.67;101289.69;5078157;28;46122;-51
2021/08/10 09:16:08;;;;;;;;;6.75;6.75;;;;;21.87;56.84;101285.03;5079416;28;45326;-50
2021/08/10 09:18:39;;;;;;;;;7.75;7.00;;;;;21.90;56.91;101297.38;5078625;28;45279;-53
2021/08/10 09:21:07;;;;;;;;;5.75;5.75;;;;;21.92;57.04;101295.47;5079338;28;45461;-51
2021/08/10 09:23:54;;;;;;;;;5.50;5.50;;;;;21.96;56.86;101294.38;5081850;28;46167;-50
2021/08/10 09:26:35;;;;;;;;;6.75;6.00;;;;;22.00;56.59;101297.72;5083030;28;45185;-50
2021/08/10 09:29:02;;;;;;;;;5.25;4.25;;;;;22.05;57.07;101293.88;5081450;28;45378;-54
2021/08/10 09:31:37;;;;;;;;;7.00;6.00;;;;;22.08;56.81;101296.38;5081746;27;45376;-50
2021/08/10 09:34:21;;;;;;;;;6.25;6.25;;;;;22.11;56.34;101289.13;5082604;28;46127;-53
2021/08/10 09:36:47;;;;;;;;;6.00;6.00;;;;;22.21;56.94;101295.72;5082834;28;45313;-49
2021/08/10 09:39:14;;;;;;;;;15.75;15.00;;;;;22.28;56.18;101288.22;5082808;28;45352;-52
2021/08/10 09:41:59;;;;;;;;;12.75;11.25;;;;;22.33;56.92;101281.66;5082823;27;45408;-52
2021/08/10 09:44:24;;;;;;;;;10.75;10.75;;;;;22.41;56.68;101281.25;5082676;28;45238;-50
2021/08/10 09:46:53;;;;;;;;;26.00;24.00;;;;;22.46;56.68;101283.69;5082584;28;45255;-52
2021/08/10 09:49:19;;;;;;;;;12.50;11.75;;;;;22.51;56.20;101282.47;5083107;28;45238;-53
2021/08/10 09:51:50;;;;;;;;;12.00;12.00;;;;;22.60;56.28;101281.09;5082450;28;45418;-51
2021/08/10 09:54:17;;;;;;;;;7.75;6.25;;;;;22.69;56.09;101285.06;5082464;28;45402;-52
2021/08/10 09:56:52;;;;;;;;;6.50;5.25;;;;;22.72;55.99;101280.41;5082337;28;45247;-50
2021/08/10 09:59:26;;;;;;;;;6.00;4.00;;;;;22.75;55.96;101268.63;5081112;28;45290;-50
2021/08/10 10:01:59;;;;;;;;;6.50;6.00;;;;;22.84;55.71;101276.16;5082445;28;45439;-52
2021/08/10 10:04:27;;;;;;;;;6.50;5.00;;;;;22.92;55.46;101278.41;5082485;28;47136;-50
2021/08/10 10:06:55;;;;;;;;;5.00;5.00;;;;;22.98;55.44;101278.03;5082246;28;45244;-50
2021/08/10 10:09:23;;;;;;;;;4.25;4.25;;;;;23.07;55.22;101279.31;5082649;28;45288;-51
2021/08/10 10:11:50;;;;;;;;;8.75;7.75;;;;;23.14;55.11;101291.38;5080877;27;45347;-53
2021/08/10 10:14:16;;;;;;;;;5.75;4.25;;;;;23.18;54.93;101281.38;5081980;28;46129;-54
2021/08/10 10:16:44;;;;;;;;;5.00;5.00;;;;;23.24;54.78;101282.88;5080758;28;45205;-54
2021/08/10 10:19:12;;;;;;;;;4.50;3.50;;;;;23.33;54.49;101284.97;5082361;28;45335;-53
2021/08/10 10:21:42;;;;;;;;;5.00;5.00;;;;;23.39;54.30;101275.72;5082031;27;45311;-54
2021/08/10 10:24:11;;;;;;;;;6.50;3.75;;;;;23.45;54.11;101286.94;5081976;28;47180;-54
2021/08/10 10:26:39;;;;;;;;;5.00;5.00;;;;;23.52;54.23;101280.25;5082236;28;45353;-51
2021/08/10 10:29:05;;;;;;;;;5.75;5.75;;;;;23.58;53.91;101275.47;5081736;28;45231;-54
2021/08/10 10:31:32;;;;;;;;;5.00;3.00;;;;;23.69;53.27;101284.56;5081982;28;45232;-52
2021/08/10 10:33:59;;;;;;;;;5.00;4.50;;;;;23.78;53.22;101283.16;5080003;28;47603;-53
2021/08/10 10:36:24;;;;;;;;;4.50;4.50;;;;;23.82;53.26;101281.16;5081969;28;45380;-53
2021/08/10 10:38:55;;;;;;;;;4.50;4.50;;;;;23.87;53.30;101273.66;5082036;27;45342;-51
2021/08/10 10:41:23;;;;;;;;;7.00;4.25;;;;;23.94;52.77;101274.22;5082233;27;45358;-50
2021/08/10 10:43:58;;;;;;;;;4.25;4.25;;;;;24.02;53.03;101264.72;5081301;28;47207;-53
2021/08/10 10:46:26;;;;;;;;;4.00;2.50;;;;;24.13;52.82;101269.38;5081947;28;46119;-53
2021/08/10 10:48:52;;;;;;;;;3.75;3.50;;;;;24.20;52.91;101264.53;5081854;28;45338;-51
2021/08/10 10:51:35;;;;;;;;;4.25;4.25;;;;;24.29;52.82;101257.69;5080379;27;46358;-53
2021/08/10 10:54:27;;;;;;;;;4.00;4.00;;;;;24.42;52.46;101250.56;5081545;28;45333;-52
2021/08/10 10:56:57;;;;;;;;;7.25;6.25;;;;;24.56;52.24;101246.97;5079931;28;45955;-52
2021/08/10 10:59:27;;;;;;;;;6.00;6.00;;;;;24.73;52.42;101256.66;5081816;28;45246;-55
2021/08/10 11:02:10;;;;;;;;;3.50;3.50;;;;;24.91;52.60;101253.72;5081389;28;45501;-56
2021/08/10 11:04:35;;;;;;;;;4.00;4.00;;;;;25.07;52.60;101250.84;5081419;28;46148;-54
2021/08/10 11:07:36;;;;;;;;;5.00;5.00;;;;;25.33;51.87;101250.91;5081368;28;45161;-55
2021/08/10 11:10:03;;;;;;;;;5.00;5.00;;;;;25.47;51.95;101253.50;5081447;28;45312;-54
2021/08/10 11:12:46;;;;;;;;;4.00;4.00;;;;;25.64;52.35;101258.59;5080173;28;45438;-53
2021/08/10 11:15:22;;;;;;;;;7.00;6.25;;;;;25.79;51.50;101245.03;5081027;28;46230;-54
2021/08/10 11:18:06;;;;;;;;;5.75;5.75;;;;;25.92;52.32;101237.81;5081179;28;45312;-53
2021/08/10 11:20:31;;;;;;;;;4.25;3.75;;;;;25.94;52.12;101235.84;5081412;28;45504;-55
2021/08/10 11:23:29;;;;;;;;;5.50;5.50;;;;;26.07;51.43;101251.16;5080993;28;45331;-55
2021/08/10 11:26:00;;;;;;;;;3.50;3.00;;;;;26.19;51.47;101244.03;5057742;28;46460;-54